createdAt,value
2022-12-06T00:00:32.038Z,100.00
2022-12-06T00:05:39.573Z,100.00
2022-12-06T00:10:45.160Z,100.00
2022-12-06T00:15:48.522Z,100.00
2022-12-06T00:20:53.259Z,100.00
2022-12-06T00:25:56.684Z,100.00
2022-12-06T00:31:00.598Z,100.00
2022-12-06T00:36:08.437Z,100.00
2022-12-06T00:41:13.785Z,100.00
2022-12-06T00:46:19.953Z,100.00
2022-12-06T00:51:26.249Z,100.00
2022-12-06T00:56:29.649Z,100.00
2022-12-06T01:01:36.336Z,100.00
2022-12-06T01:06:41.342Z,100.00
2022-12-06T01:11:44.706Z,100.00
2022-12-06T01:16:48.132Z,100.00
2022-12-06T01:21:52.966Z,100.00
2022-12-06T01:26:56.320Z,100.00
2022-12-06T01:31:59.685Z,100.00
2022-12-06T01:37:04.485Z,100.00
2022-12-06T01:42:07.876Z,100.00
2022-12-06T01:47:15.109Z,100.00
2022-12-06T01:52:21.882Z,100.00
2022-12-06T01:57:25.392Z,100.00
2022-12-06T02:02:29.231Z,100.00
2022-12-06T02:07:34.268Z,100.00
2022-12-06T02:12:37.808Z,100.00
2022-12-06T02:17:49.508Z,100.00
2022-12-06T02:23:32.881Z,100.00
2022-12-06T02:29:05.166Z,100.00
2022-12-06T02:34:18.875Z,100.00
2022-12-06T02:39:28.406Z,100.00
2022-12-06T02:44:36.815Z,100.00
2022-12-06T02:49:47.563Z,100.00
2022-12-06T02:54:53.693Z,100.00
2022-12-06T02:59:57.374Z,100.00
2022-12-06T03:05:21.617Z,99.99
2022-12-06T03:10:39.689Z,100.00
2022-12-06T03:15:50.907Z,100.00
2022-12-06T03:21:00.081Z,100.00
2022-12-06T03:26:06.092Z,100.00
2022-12-06T03:31:14.303Z,100.00
2022-12-06T03:36:20.838Z,100.00
2022-12-06T03:41:47.123Z,100.00
2022-12-06T03:46:54.155Z,100.00
2022-12-06T03:51:59.437Z,100.00
2022-12-06T03:57:04.115Z,100.00
2022-12-06T04:02:07.717Z,100.00
2022-12-06T04:07:13.088Z,100.00
2022-12-06T04:12:33.416Z,100.00
2022-12-06T04:17:56.922Z,100.00
2022-12-06T04:23:07.617Z,100.00
2022-12-06T04:28:28.520Z,100.00
2022-12-06T04:33:49.109Z,100.00
2022-12-06T04:38:53.931Z,100.00
2022-12-06T04:43:57.254Z,100.00
2022-12-06T04:49:00.753Z,100.00
2022-12-06T04:54:07.382Z,100.00
2022-12-06T04:59:10.817Z,100.00
2022-12-06T05:04:14.374Z,100.00
2022-12-06T05:09:19.187Z,100.00
2022-12-06T05:14:22.592Z,100.00
2022-12-06T05:19:25.986Z,100.00
2022-12-06T05:24:30.859Z,100.00
2022-12-06T05:29:34.268Z,100.00
2022-12-06T05:34:37.748Z,100.00
2022-12-06T05:39:43.062Z,100.00
2022-12-06T05:44:46.410Z,100.00
2022-12-06T05:49:49.769Z,100.00
2022-12-06T05:54:54.603Z,100.00
2022-12-06T05:59:58.286Z,100.00
2022-12-06T06:05:01.929Z,100.00
2022-12-06T06:10:08.928Z,100.00
2022-12-06T06:15:13.274Z,100.00
2022-12-06T06:20:17.014Z,100.00
2022-12-06T06:25:22.474Z,100.00
2022-12-06T06:30:25.931Z,100.00
2022-12-06T06:35:29.646Z,100.00
2022-12-06T06:40:34.869Z,100.00
2022-12-06T06:45:38.303Z,100.00
2022-12-06T06:50:41.863Z,100.00
2022-12-06T06:55:47.506Z,100.00
2022-12-06T07:00:55.258Z,100.00
2022-12-06T07:06:01.152Z,100.00
2022-12-06T07:11:06.115Z,100.00
2022-12-06T07:16:14.215Z,100.00
2022-12-06T07:21:18.725Z,100.00
2022-12-06T07:26:24.847Z,100.00
2022-12-06T07:31:30.709Z,100.00
2022-12-06T07:36:34.254Z,100.00
2022-12-06T07:41:56.297Z,100.00
2022-12-06T07:47:33.084Z,100.00
2022-12-06T07:52:37.950Z,100.00
2022-12-06T07:57:43.936Z,100.00
2022-12-06T08:02:47.601Z,100.00
2022-12-06T08:07:51.038Z,99.62
2022-12-06T08:12:55.873Z,99.29
2022-12-06T08:17:59.329Z,98.63
2022-12-06T08:23:02.892Z,98.10
2022-12-06T08:28:07.750Z,97.70
2022-12-06T08:33:11.156Z,97.62
2022-12-06T08:38:14.549Z,97.38
2022-12-06T08:43:19.637Z,97.02
2022-12-06T08:48:23.072Z,96.66
2022-12-06T08:53:26.482Z,95.78
2022-12-06T08:58:31.549Z,96.01
2022-12-06T09:03:34.891Z,94.71
2022-12-06T09:08:38.698Z,94.50
2022-12-06T09:13:43.927Z,94.10
2022-12-06T09:18:48.537Z,93.71
2022-12-06T09:23:52.559Z,92.95
2022-12-06T09:28:58.021Z,92.45
2022-12-06T09:34:01.366Z,92.42
2022-12-06T09:39:07.351Z,91.81
2022-12-06T09:44:35.382Z,91.31
2022-12-06T09:49:48.618Z,90.99
2022-12-06T09:55:03.152Z,90.05
2022-12-06T10:00:12.548Z,89.82
2022-12-06T10:05:33.269Z,89.38
2022-12-06T10:10:50.789Z,89.26
2022-12-06T10:16:08.266Z,89.60
2022-12-06T10:21:18.929Z,90.17
2022-12-06T10:26:34.265Z,88.02
2022-12-06T10:31:47.954Z,87.88
2022-12-06T10:37:02.275Z,87.77
2022-12-06T10:42:13.211Z,88.22
2022-12-06T10:47:22.706Z,88.03
2022-12-06T10:52:36.256Z,88.32
2022-12-06T10:57:45.500Z,87.14
2022-12-06T11:02:57.915Z,87.48
2022-12-06T11:08:06.892Z,88.26
2022-12-06T11:13:23.657Z,87.74
2022-12-06T11:18:30.132Z,87.76
2022-12-06T11:23:45.599Z,88.08
2022-12-06T11:29:00.309Z,88.22
2022-12-06T11:34:08.104Z,88.99
2022-12-06T11:39:15.950Z,88.31
2022-12-06T11:44:21.881Z,88.81
2022-12-06T11:49:32.641Z,88.69
2022-12-06T11:54:40.963Z,87.88
2022-12-06T12:00:15.542Z,87.91
2022-12-06T12:05:25.632Z,88.30
2022-12-06T12:10:34.332Z,88.75
2022-12-06T12:15:38.490Z,88.49
2022-12-06T12:20:47.804Z,88.38
2022-12-06T12:26:02.155Z,88.15
2022-12-06T12:31:11.989Z,88.10
2022-12-06T12:36:21.919Z,87.92
2022-12-06T12:41:30.237Z,87.72
2022-12-06T12:46:42.216Z,88.13
2022-12-06T12:51:48.118Z,87.93
2022-12-06T12:56:52.361Z,88.52
2022-12-06T13:02:00.178Z,88.36
2022-12-06T13:07:07.981Z,88.59
2022-12-06T13:12:16.389Z,88.50
2022-12-06T13:17:22.510Z,88.36
2022-12-06T13:22:30.879Z,89.05
2022-12-06T13:27:38.208Z,89.11
2022-12-06T13:32:44.966Z,90.15
2022-12-06T13:37:55.839Z,90.11
2022-12-06T13:42:59.704Z,90.93
2022-12-06T13:48:03.034Z,90.87
2022-12-06T13:53:07.777Z,90.60
2022-12-06T13:58:40.751Z,90.86
2022-12-06T14:03:55.254Z,90.71
2022-12-06T14:09:00.862Z,90.92
2022-12-06T14:14:08.991Z,91.11
2022-12-06T14:19:19.574Z,91.25
2022-12-06T14:24:34.258Z,91.42
2022-12-06T14:29:37.731Z,91.27
2022-12-06T14:34:41.306Z,91.49
2022-12-06T14:39:53.368Z,91.55
2022-12-06T14:45:01.994Z,91.66
2022-12-06T14:50:26.134Z,91.80
2022-12-06T14:55:32.792Z,91.81
2022-12-06T15:00:41.354Z,92.35
2022-12-06T15:05:49.667Z,92.27
2022-12-06T15:10:58.522Z,92.16
2022-12-06T15:16:14.319Z,92.70
2022-12-06T15:21:18.957Z,93.35
2022-12-06T15:26:25.521Z,93.52
2022-12-06T15:31:31.135Z,93.49
2022-12-06T15:36:35.761Z,94.07
2022-12-06T15:41:42.146Z,94.16
2022-12-06T15:46:46.196Z,94.62
2022-12-06T15:51:50.904Z,94.35
2022-12-06T15:56:55.734Z,94.28
2022-12-06T16:01:59.074Z,94.75
2022-12-06T16:07:02.517Z,94.89
2022-12-06T16:12:07.886Z,95.05
2022-12-06T16:17:12.060Z,95.38
2022-12-06T16:22:15.507Z,95.45
2022-12-06T16:27:20.342Z,95.33
2022-12-06T16:32:23.717Z,96.04
2022-12-06T16:37:27.106Z,96.35
2022-12-06T16:42:31.859Z,96.54
2022-12-06T16:47:35.297Z,96.49
2022-12-06T16:52:38.674Z,96.52
2022-12-06T16:57:43.409Z,96.97
2022-12-06T17:02:46.874Z,97.09
2022-12-06T17:07:50.259Z,97.61
2022-12-06T17:12:55.058Z,97.57
2022-12-06T17:17:58.548Z,98.00
2022-12-06T17:23:03.211Z,97.77
2022-12-06T17:28:08.008Z,98.22
2022-12-06T17:33:11.365Z,98.59
2022-12-06T17:38:14.720Z,98.89
2022-12-06T17:43:19.522Z,98.73
2022-12-06T17:48:23.304Z,99.22
2022-12-06T17:53:26.651Z,99.44
2022-12-06T17:58:31.426Z,99.27
2022-12-06T18:03:34.887Z,99.89
2022-12-06T18:08:38.451Z,99.71
2022-12-06T18:13:43.276Z,99.52
2022-12-06T18:18:47.990Z,100.00
2022-12-06T18:24:19.810Z,100.00
2022-12-06T18:29:18.918Z,100.00
2022-12-06T18:34:23.759Z,100.00
2022-12-06T18:39:28.195Z,100.00
2022-12-06T18:44:33.060Z,100.00
2022-12-06T18:49:36.459Z,100.00
2022-12-06T18:54:39.942Z,100.00
2022-12-06T18:59:44.895Z,100.00
2022-12-06T19:04:48.267Z,100.00
2022-12-06T19:09:51.672Z,100.00
2022-12-06T19:14:59.125Z,100.00
2022-12-06T19:20:02.795Z,100.00
2022-12-06T19:25:09.658Z,100.00
2022-12-06T19:30:18.213Z,100.00
2022-12-06T19:35:22.242Z,100.00
2022-12-06T19:40:25.646Z,100.00
2022-12-06T19:45:30.468Z,100.00
2022-12-06T19:50:36.075Z,100.00
2022-12-06T19:55:39.522Z,100.00
2022-12-06T20:00:46.008Z,100.00
2022-12-06T20:05:50.997Z,100.00
2022-12-06T20:10:54.386Z,100.00
2022-12-06T20:16:03.790Z,100.00
2022-12-06T20:21:07.661Z,100.00
2022-12-06T20:26:15.165Z,100.00
2022-12-06T20:31:21.981Z,100.00
2022-12-06T20:36:26.650Z,100.00
2022-12-06T20:41:33.143Z,100.00
2022-12-06T20:46:38.011Z,100.00
2022-12-06T20:51:41.358Z,100.00
2022-12-06T20:56:45.194Z,100.00
2022-12-06T21:01:50.244Z,100.00
2022-12-06T21:06:53.939Z,100.00
2022-12-06T21:11:57.327Z,100.00
2022-12-06T21:17:02.081Z,100.00
2022-12-06T21:22:08.212Z,100.00
2022-12-06T21:27:11.574Z,100.00
2022-12-06T21:32:16.374Z,100.00
2022-12-06T21:37:19.720Z,100.00
2022-12-06T21:42:24.003Z,100.00
2022-12-06T21:47:28.831Z,100.00
2022-12-06T21:52:32.212Z,100.00
2022-12-06T21:57:35.992Z,100.00
2022-12-06T22:02:41.081Z,100.00
2022-12-06T22:07:44.624Z,100.00
2022-12-06T22:12:48.768Z,100.00
2022-12-06T22:17:53.831Z,100.00
2022-12-06T22:22:57.182Z,100.00
2022-12-06T22:28:00.450Z,100.00
2022-12-06T22:33:05.217Z,100.00
2022-12-06T22:38:08.829Z,100.00
2022-12-06T22:43:12.276Z,100.00
2022-12-06T22:48:17.000Z,100.00
2022-12-06T22:53:20.370Z,100.00
2022-12-06T22:58:23.740Z,100.00
2022-12-06T23:03:30.138Z,100.00
2022-12-06T23:08:33.912Z,100.00
2022-12-06T23:13:37.697Z,100.00
2022-12-06T23:18:42.791Z,100.00
2022-12-06T23:23:47.931Z,100.00
2022-12-06T23:28:52.014Z,100.00
2022-12-06T23:33:59.495Z,100.00
2022-12-06T23:39:03.303Z,100.00
2022-12-06T23:44:07.908Z,100.00
2022-12-06T23:49:16.838Z,100.00
2022-12-06T23:54:20.352Z,100.00
2022-12-06T23:59:23.742Z,100.00
